createdAt,value
2023-02-11T00:00:07.825Z,34.78
2023-02-11T00:01:22.245Z,32.60
2023-02-11T00:02:40.143Z,30.17
2023-02-11T00:04:03.983Z,35.83
2023-02-11T00:05:26.542Z,29.80
2023-02-11T00:06:50.391Z,32.60
2023-02-11T00:08:16.839Z,31.42
2023-02-11T00:09:39.333Z,35.28
2023-02-11T00:11:02.132Z,31.67
2023-02-11T00:12:24.927Z,35.90
2023-02-11T00:13:47.959Z,36.80
2023-02-11T00:15:11.269Z,35.45
2023-02-11T00:16:32.882Z,28.77
2023-02-11T00:17:55.450Z,33.17
2023-02-11T00:19:07.134Z,35.25
2023-02-11T00:20:24.808Z,31.17
2023-02-11T00:21:47.320Z,31.40
2023-02-11T00:23:00.226Z,28.63
2023-02-11T00:24:08.199Z,32.92
2023-02-11T00:25:09.765Z,31.15
2023-02-11T00:26:14.111Z,31.63
2023-02-11T00:27:15.812Z,38.90
2023-02-11T00:28:18.298Z,36.28
2023-02-11T00:29:19.889Z,37.78
2023-02-11T00:30:32.452Z,27.40
2023-02-11T00:31:44.256Z,28.92
2023-02-11T00:32:56.827Z,34.00
2023-02-11T00:33:58.690Z,29.23
2023-02-11T00:35:01.948Z,34.40
2023-02-11T00:36:04.567Z,32.83
2023-02-11T00:37:07.174Z,36.50
2023-02-11T00:38:10.030Z,33.10
2023-02-11T00:39:12.557Z,36.53
2023-02-11T00:40:15.932Z,34.58
2023-02-11T00:41:19.535Z,37.63
2023-02-11T00:42:21.134Z,35.60
2023-02-11T00:43:23.669Z,38.20
2023-02-11T00:44:25.307Z,33.03
2023-02-11T00:45:28.720Z,33.10
2023-02-11T00:46:31.590Z,33.30
2023-02-11T00:47:41.904Z,33.08
2023-02-11T00:48:44.122Z,34.50
2023-02-11T00:49:56.574Z,32.22
2023-02-11T00:51:08.868Z,34.22
2023-02-11T00:52:11.394Z,31.63
2023-02-11T00:53:14.268Z,33.70
2023-02-11T00:54:16.739Z,34.65
2023-02-11T00:55:18.464Z,38.20
2023-02-11T00:56:21.411Z,34.30
2023-02-11T00:57:23.191Z,38.72
2023-02-11T00:58:25.977Z,35.03
2023-02-11T00:59:27.603Z,37.85
2023-02-11T01:00:30.303Z,30.27
2023-02-11T01:01:34.570Z,39.13
2023-02-11T01:02:38.480Z,37.55
2023-02-11T01:03:41.096Z,31.77
2023-02-11T01:04:46.729Z,30.98
2023-02-11T01:05:54.586Z,33.70
2023-02-11T01:06:57.699Z,35.03
2023-02-11T01:07:59.234Z,43.53
2023-02-11T01:09:03.642Z,33.60
2023-02-11T01:10:05.702Z,36.53
2023-02-11T01:11:13.393Z,34.92
2023-02-11T01:12:15.897Z,33.35
2023-02-11T01:13:17.645Z,33.25
2023-02-11T01:14:21.452Z,33.33
2023-02-11T01:15:27.017Z,40.22
2023-02-11T01:16:30.197Z,35.28
2023-02-11T01:17:38.096Z,36.53
2023-02-11T01:18:44.528Z,34.13
2023-02-11T01:19:46.897Z,35.00
2023-02-11T01:20:49.363Z,40.50
2023-02-11T01:21:51.865Z,37.10
2023-02-11T01:22:53.687Z,37.33
2023-02-11T01:23:56.228Z,32.00
2023-02-11T01:24:59.134Z,33.60
2023-02-11T01:26:01.672Z,35.15
2023-02-11T01:27:03.307Z,33.78
2023-02-11T01:28:06.595Z,35.35
2023-02-11T01:29:09.245Z,36.65
2023-02-11T01:30:14.905Z,36.17
2023-02-11T01:31:16.600Z,36.88
2023-02-11T01:32:21.417Z,31.42
2023-02-11T01:33:23.623Z,35.83
2023-02-11T01:34:26.107Z,32.95
2023-02-11T01:35:27.632Z,32.90
2023-02-11T01:36:30.105Z,33.28
2023-02-11T01:37:32.918Z,36.08
2023-02-11T01:38:35.927Z,36.83
2023-02-11T01:39:37.518Z,33.35
2023-02-11T01:40:48.198Z,33.13
2023-02-11T01:41:58.317Z,35.13
2023-02-11T01:42:59.882Z,31.10
2023-02-11T01:44:24.028Z,43.72
2023-02-11T01:45:59.772Z,37.17
2023-02-11T01:47:04.654Z,30.50
2023-02-11T01:48:06.449Z,32.28
2023-02-11T01:49:16.147Z,31.77
2023-02-11T01:50:18.692Z,31.75
2023-02-11T01:51:35.566Z,31.70
2023-02-11T01:52:42.498Z,31.85
2023-02-11T01:54:06.270Z,34.17
2023-02-11T01:55:32.243Z,34.50
2023-02-11T01:56:58.142Z,28.73
2023-02-11T01:58:04.841Z,30.23
2023-02-11T01:59:13.172Z,32.60
2023-02-11T02:00:21.483Z,30.63
2023-02-11T02:01:27.502Z,35.08
2023-02-11T02:02:36.939Z,32.72
2023-02-11T02:03:43.548Z,40.35
2023-02-11T02:04:54.630Z,31.60
2023-02-11T02:06:11.818Z,31.70
2023-02-11T02:10:46.974Z,33.00
2023-02-11T02:11:50.753Z,37.17
2023-02-11T02:12:53.464Z,32.70
2023-02-11T02:13:55.142Z,36.10
2023-02-11T02:15:22.102Z,33.08
2023-02-11T02:16:30.689Z,34.97
2023-02-11T02:17:41.626Z,31.75
2023-02-11T02:18:53.497Z,36.00
2023-02-11T02:20:24.542Z,30.27
2023-02-11T02:21:50.712Z,40.55
2023-02-11T02:23:20.870Z,27.05
2023-02-11T02:24:40.450Z,33.22
2023-02-11T02:26:14.970Z,34.65
2023-02-11T02:27:47.897Z,34.80
2023-02-11T02:29:17.081Z,31.52
2023-02-11T02:33:27.202Z,29.75
2023-02-11T02:34:36.509Z,32.45
2023-02-11T02:35:43.530Z,30.85
2023-02-11T02:36:52.140Z,31.20
2023-02-11T02:38:02.009Z,25.60
2023-02-11T02:39:08.260Z,31.75
2023-02-11T02:40:16.632Z,33.42
2023-02-11T02:41:22.165Z,33.50
2023-02-11T02:42:24.988Z,36.50
2023-02-11T02:43:29.783Z,27.00
2023-02-11T02:44:31.922Z,30.90
2023-02-11T02:45:34.488Z,31.92
2023-02-11T02:46:36.635Z,37.92
2023-02-11T02:47:39.150Z,35.85
2023-02-11T02:48:40.919Z,27.52
2023-02-11T02:49:44.791Z,36.78
2023-02-11T02:50:46.842Z,31.35
2023-02-11T02:52:09.526Z,29.15
2023-02-11T02:53:25.294Z,33.53
2023-02-11T02:54:52.809Z,36.83
2023-02-11T02:56:02.355Z,31.13
2023-02-11T02:57:15.760Z,33.13
2023-02-11T02:58:47.085Z,30.20
2023-02-11T03:00:02.941Z,35.90
2023-02-11T03:01:13.777Z,29.98
2023-02-11T03:02:23.259Z,29.50
2023-02-11T03:03:36.230Z,34.97
2023-02-11T03:04:49.018Z,31.55
2023-02-11T03:05:58.061Z,25.73
2023-02-11T03:07:06.069Z,26.88
2023-02-11T03:08:13.020Z,33.25
2023-02-11T03:09:19.050Z,32.97
2023-02-11T03:10:26.607Z,33.72
2023-02-11T03:11:30.226Z,27.75
2023-02-11T03:12:36.743Z,29.02
2023-02-11T03:13:41.029Z,34.30
2023-02-11T03:14:45.800Z,26.88
2023-02-11T03:15:51.141Z,39.22
2023-02-11T03:16:56.022Z,32.13
2023-02-11T03:18:00.326Z,28.30
2023-02-11T03:19:07.048Z,27.98
2023-02-11T03:20:13.727Z,32.50
2023-02-11T03:21:18.429Z,26.00
2023-02-11T03:22:25.006Z,28.38
2023-02-11T03:23:30.390Z,30.80
2023-02-11T03:24:36.862Z,31.63
2023-02-11T03:25:45.051Z,33.35
2023-02-11T03:26:51.503Z,31.25
2023-02-11T03:28:04.451Z,34.83
2023-02-11T03:29:14.263Z,30.67
2023-02-11T03:30:21.863Z,25.65
2023-02-11T03:31:30.915Z,28.73
2023-02-11T03:32:38.724Z,26.27
2023-02-11T03:33:46.854Z,28.30
2023-02-11T03:35:04.694Z,31.67
2023-02-11T03:36:24.043Z,30.65
2023-02-11T03:37:31.747Z,31.00
2023-02-11T03:38:37.457Z,28.75
2023-02-11T03:39:44.692Z,29.65
2023-02-11T03:40:47.542Z,32.00
2023-02-11T03:41:52.775Z,30.65
2023-02-11T03:42:58.467Z,28.98
2023-02-11T03:44:02.378Z,29.98
2023-02-11T03:45:08.569Z,29.63
2023-02-11T03:46:13.394Z,30.63
2023-02-11T03:47:18.890Z,39.50
2023-02-11T03:48:26.192Z,30.92
2023-02-11T03:49:29.558Z,27.65
2023-02-11T03:50:35.688Z,32.47
2023-02-11T03:51:40.934Z,31.23
2023-02-11T03:52:47.868Z,31.65
2023-02-11T03:53:52.849Z,34.33
2023-02-11T03:54:58.401Z,29.95
2023-02-11T03:56:03.911Z,34.17
2023-02-11T03:57:06.479Z,34.20
2023-02-11T03:58:08.598Z,30.52
2023-02-11T03:59:11.110Z,33.22
2023-02-11T04:00:13.842Z,35.30
2023-02-11T04:01:18.265Z,29.10
2023-02-11T04:02:20.801Z,28.55
2023-02-11T04:03:23.350Z,40.63
2023-02-11T04:04:25.684Z,27.65
2023-02-11T04:05:31.203Z,25.77
2023-02-11T04:06:32.738Z,30.38
2023-02-11T04:07:36.579Z,36.78
2023-02-11T04:08:38.161Z,31.70
2023-02-11T04:09:40.663Z,33.50
2023-02-11T04:10:42.200Z,29.60
2023-02-11T04:11:44.709Z,30.30
2023-02-11T04:12:46.621Z,29.45
2023-02-11T04:13:49.092Z,28.58
2023-02-11T04:14:50.660Z,26.60
2023-02-11T04:15:53.474Z,32.45
2023-02-11T04:16:55.675Z,33.83
2023-02-11T04:18:04.586Z,33.65
2023-02-11T04:19:07.124Z,28.13
2023-02-11T04:20:12.288Z,31.05
2023-02-11T04:21:23.892Z,29.00
2023-02-11T04:22:26.551Z,25.15
2023-02-11T04:23:29.433Z,35.17
2023-02-11T04:24:32.138Z,31.98
2023-02-11T04:25:33.651Z,38.15
2023-02-11T04:26:36.152Z,34.03
2023-02-11T04:27:38.200Z,28.95
2023-02-11T04:28:40.703Z,42.45
2023-02-11T04:29:42.330Z,32.17
2023-02-11T04:30:44.811Z,36.55
2023-02-11T04:31:46.580Z,37.08
2023-02-11T04:32:49.086Z,32.70
2023-02-11T04:33:50.632Z,29.90
2023-02-11T04:34:54.829Z,40.60
2023-02-11T04:35:56.793Z,29.70
2023-02-11T04:37:01.499Z,34.20
2023-02-11T04:38:03.203Z,29.90
2023-02-11T04:39:07.453Z,32.92
2023-02-11T04:40:10.054Z,38.75
2023-02-11T04:41:12.532Z,33.25
2023-02-11T04:42:14.128Z,34.17
2023-02-11T04:43:16.664Z,32.10
2023-02-11T04:44:18.248Z,38.13
2023-02-11T04:45:20.724Z,31.30
2023-02-11T04:46:22.618Z,37.85
2023-02-11T04:47:25.246Z,34.58
2023-02-11T04:48:26.884Z,31.73
2023-02-11T04:49:29.652Z,33.72
2023-02-11T04:50:36.722Z,35.42
2023-02-11T04:51:39.215Z,38.13
2023-02-11T04:52:40.836Z,35.05
2023-02-11T04:53:43.310Z,33.05
2023-02-11T04:54:46.184Z,28.15
2023-02-11T04:55:50.578Z,34.55
2023-02-11T04:56:52.415Z,30.83
2023-02-11T04:57:55.220Z,27.98
2023-02-11T04:58:56.814Z,36.92
2023-02-11T04:59:59.301Z,37.45
2023-02-11T05:01:06.065Z,29.48
2023-02-11T05:02:08.886Z,36.80
2023-02-11T05:03:12.311Z,34.40
2023-02-11T05:04:14.884Z,34.28
2023-02-11T05:05:16.584Z,28.65
2023-02-11T05:06:19.090Z,30.08
2023-02-11T05:07:20.604Z,30.42
2023-02-11T05:08:23.434Z,35.60
2023-02-11T05:09:24.991Z,33.00
2023-02-11T05:10:29.893Z,40.20
2023-02-11T05:11:33.458Z,34.75
2023-02-11T05:12:37.918Z,35.65
2023-02-11T05:13:40.352Z,37.60
2023-02-11T05:14:43.042Z,27.55
2023-02-11T05:15:44.771Z,31.08
2023-02-11T05:16:47.324Z,35.22
2023-02-11T05:17:48.863Z,32.55
2023-02-11T05:18:52.632Z,33.88
2023-02-11T05:19:54.284Z,31.60
2023-02-11T05:20:56.788Z,38.45
2023-02-11T05:22:03.199Z,35.50
2023-02-11T05:23:06.182Z,26.92
2023-02-11T05:24:08.300Z,30.55
2023-02-11T05:25:10.859Z,40.92
2023-02-11T05:26:14.428Z,53.40
2023-02-11T05:27:16.965Z,39.95
2023-02-11T05:28:18.914Z,33.83
2023-02-11T05:29:21.414Z,36.22
2023-02-11T05:30:24.311Z,34.40
2023-02-11T05:31:27.514Z,34.88
2023-02-11T05:32:29.085Z,41.45
2023-02-11T05:33:31.926Z,39.75
2023-02-11T05:34:33.488Z,37.92
2023-02-11T05:35:36.169Z,36.00
2023-02-11T05:36:38.412Z,31.08
2023-02-11T05:37:40.989Z,41.05
2023-02-11T05:38:43.312Z,33.63
2023-02-11T05:39:45.923Z,28.70
2023-02-11T05:40:47.505Z,32.78
2023-02-11T05:41:51.388Z,35.08
2023-02-11T05:42:52.925Z,34.17
2023-02-11T05:43:55.433Z,31.42
2023-02-11T05:44:57.007Z,40.67
2023-02-11T05:46:00.027Z,32.67
2023-02-11T05:47:03.334Z,30.23
2023-02-11T05:48:06.447Z,27.90
2023-02-11T05:49:07.961Z,30.42
2023-02-11T05:50:10.629Z,35.67
2023-02-11T05:51:12.212Z,37.30
2023-02-11T05:52:14.702Z,28.95
2023-02-11T05:53:16.245Z,42.30
2023-02-11T05:54:18.959Z,39.67
2023-02-11T05:55:20.498Z,36.60
2023-02-11T05:56:23.013Z,30.42
2023-02-11T05:57:25.924Z,40.85
2023-02-11T05:58:29.590Z,41.58
2023-02-11T05:59:41.210Z,37.75
2023-02-11T06:00:47.040Z,28.40
2023-02-11T06:01:50.693Z,32.55
2023-02-11T06:02:53.377Z,30.70
2023-02-11T06:03:56.029Z,29.83
2023-02-11T06:04:57.613Z,42.60
2023-02-11T06:06:00.118Z,45.53
2023-02-11T06:07:01.707Z,48.67
2023-02-11T06:08:04.693Z,35.40
2023-02-11T06:09:06.256Z,35.35
2023-02-11T06:10:09.538Z,33.05
2023-02-11T06:11:11.092Z,35.35
2023-02-11T06:12:13.580Z,39.08
2023-02-11T06:13:18.541Z,44.28
2023-02-11T06:14:21.098Z,35.05
2023-02-11T06:15:22.660Z,36.60
2023-02-11T06:16:25.661Z,36.40
2023-02-11T06:17:28.974Z,43.47
2023-02-11T06:18:33.365Z,39.67
2023-02-11T06:19:34.993Z,34.92
2023-02-11T06:20:40.659Z,33.10
2023-02-11T06:21:44.212Z,36.92
2023-02-11T06:22:47.205Z,33.40
2023-02-11T06:23:49.104Z,43.60
2023-02-11T06:25:01.249Z,41.22
2023-02-11T06:26:03.868Z,40.83
2023-02-11T06:27:06.502Z,37.28
2023-02-11T06:28:08.494Z,33.38
2023-02-11T06:29:12.855Z,40.78
2023-02-11T06:30:14.880Z,30.95
2023-02-11T06:31:18.369Z,36.53
2023-02-11T06:32:42.283Z,34.65
2023-02-11T06:33:43.909Z,43.45
2023-02-11T06:34:45.461Z,33.38
2023-02-11T06:35:47.946Z,39.10
2023-02-11T06:36:49.885Z,37.30
2023-02-11T06:37:53.838Z,33.47
2023-02-11T06:38:55.449Z,35.33
2023-02-11T06:39:57.957Z,37.88
2023-02-11T06:40:59.470Z,45.15
2023-02-11T06:42:02.506Z,33.15
2023-02-11T06:43:07.996Z,33.85
2023-02-11T06:44:21.944Z,35.50
2023-02-11T06:45:24.435Z,37.80
2023-02-11T06:46:27.796Z,40.33
2023-02-11T06:47:29.323Z,34.63
2023-02-11T06:48:31.855Z,32.50
2023-02-11T06:49:33.477Z,37.38
2023-02-11T06:50:36.038Z,40.85
2023-02-11T06:51:37.564Z,36.13
2023-02-11T06:52:40.045Z,43.28
2023-02-11T06:53:45.479Z,32.88
2023-02-11T06:54:47.006Z,38.17
2023-02-11T06:55:50.037Z,38.90
2023-02-11T06:56:51.872Z,48.67
2023-02-11T06:57:54.631Z,40.30
2023-02-11T06:58:56.631Z,40.40
2023-02-11T07:00:00.505Z,46.78
2023-02-11T07:01:06.560Z,41.78
2023-02-11T07:02:12.251Z,39.85
2023-02-11T07:03:13.952Z,41.63
2023-02-11T07:04:16.845Z,43.50
2023-02-11T07:05:18.595Z,35.38
2023-02-11T07:06:24.672Z,39.22
2023-02-11T07:07:27.423Z,44.15
2023-02-11T07:08:30.080Z,39.17
2023-02-11T07:09:33.291Z,47.45
2023-02-11T07:10:34.950Z,38.53
2023-02-11T07:11:37.500Z,37.97
2023-02-11T07:12:39.033Z,37.72
2023-02-11T07:13:41.962Z,39.38
2023-02-11T07:14:46.274Z,43.70
2023-02-11T07:15:51.007Z,36.90
2023-02-11T07:16:52.742Z,33.10
2023-02-11T07:17:55.291Z,41.90
2023-02-11T07:18:56.795Z,37.67
2023-02-11T07:19:59.345Z,34.85
2023-02-11T07:21:05.174Z,44.08
2023-02-11T07:22:07.723Z,36.58
2023-02-11T07:23:09.403Z,37.17
2023-02-11T07:24:12.378Z,42.97
2023-02-11T07:25:13.989Z,42.35
2023-02-11T07:26:18.811Z,41.03
2023-02-11T07:27:21.650Z,34.15
2023-02-11T07:28:26.901Z,43.03
2023-02-11T07:29:39.463Z,38.60
2023-02-11T07:30:41.044Z,38.65
2023-02-11T07:31:45.090Z,45.67
2023-02-11T07:32:46.739Z,38.88
2023-02-11T07:33:49.879Z,35.25
2023-02-11T07:34:51.520Z,43.78
2023-02-11T07:35:54.167Z,38.92
2023-02-11T07:36:55.729Z,42.17
2023-02-11T07:37:58.230Z,40.80
2023-02-11T07:39:00.142Z,38.13
2023-02-11T07:40:02.862Z,36.38
2023-02-11T07:41:06.895Z,47.08
2023-02-11T07:42:09.544Z,41.35
2023-02-11T07:43:11.109Z,56.80
2023-02-11T07:44:13.570Z,52.55
2023-02-11T07:45:16.240Z,36.70
2023-02-11T07:46:22.050Z,36.97
2023-02-11T07:47:25.478Z,38.33
2023-02-11T07:48:27.988Z,45.05
2023-02-11T07:49:29.725Z,42.15
2023-02-11T07:50:32.205Z,37.67
2023-02-11T07:51:33.816Z,36.83
2023-02-11T07:52:36.362Z,48.35
2023-02-11T07:53:38.402Z,43.17
2023-02-11T07:54:41.124Z,40.28
2023-02-11T07:55:43.202Z,44.65
2023-02-11T07:56:45.779Z,43.70
2023-02-11T07:57:53.330Z,37.00
2023-02-11T07:58:57.092Z,45.88
2023-02-11T07:59:58.898Z,40.25
2023-02-11T08:01:03.550Z,41.90
2023-02-11T08:02:06.115Z,41.83
2023-02-11T08:03:09.008Z,50.88
2023-02-11T08:04:11.548Z,45.92
2023-02-11T08:05:14.153Z,42.40
2023-02-11T08:06:18.691Z,46.63
2023-02-11T08:07:21.531Z,38.95
2023-02-11T08:08:23.390Z,46.47
2023-02-11T08:09:25.868Z,34.28
2023-02-11T08:10:27.408Z,48.22
2023-02-11T08:11:29.896Z,43.58
2023-02-11T08:12:31.510Z,43.75
2023-02-11T08:13:34.011Z,50.35
2023-02-11T08:14:36.701Z,40.55
2023-02-11T08:15:38.721Z,47.97
2023-02-11T08:16:43.909Z,38.30
2023-02-11T08:17:49.407Z,49.72
2023-02-11T08:18:55.949Z,49.30
2023-02-11T08:19:58.866Z,42.08
2023-02-11T08:21:04.881Z,41.33
2023-02-11T08:22:07.416Z,43.85
2023-02-11T08:23:08.953Z,47.63
2023-02-11T08:24:11.867Z,41.85
2023-02-11T08:25:13.440Z,38.17
2023-02-11T08:26:18.471Z,45.35
2023-02-11T08:27:20.972Z,49.60
2023-02-11T08:28:22.520Z,39.35
2023-02-11T08:29:25.083Z,42.92
2023-02-11T08:30:27.624Z,48.13
2023-02-11T08:31:33.846Z,52.13
2023-02-11T08:32:35.659Z,43.67
2023-02-11T08:33:40.333Z,47.13
2023-02-11T08:34:44.847Z,42.35
2023-02-11T08:35:50.911Z,49.75
2023-02-11T08:36:53.943Z,46.10
2023-02-11T08:37:55.480Z,50.35
2023-02-11T08:39:15.977Z,46.35
2023-02-11T08:40:20.438Z,43.25
2023-02-11T08:43:47.473Z,41.83
2023-02-11T08:44:49.023Z,43.55
2023-02-11T08:45:51.900Z,44.50
2023-02-11T08:46:54.813Z,52.03
2023-02-11T08:47:57.477Z,43.08
2023-02-11T08:49:01.417Z,49.95
2023-02-11T08:50:06.247Z,47.45
2023-02-11T08:51:09.867Z,46.17
2023-02-11T08:52:12.799Z,59.35
2023-02-11T08:53:14.346Z,43.40
2023-02-11T08:54:17.074Z,49.63
2023-02-11T08:55:18.636Z,50.15
2023-02-11T08:56:23.340Z,44.97
2023-02-11T08:57:24.935Z,54.50
2023-02-11T08:58:27.541Z,50.72
2023-02-11T08:59:29.776Z,50.13
2023-02-11T09:00:33.543Z,59.33
2023-02-11T09:01:46.973Z,47.25
2023-02-11T09:02:51.186Z,48.47
2023-02-11T09:03:52.873Z,49.40
2023-02-11T09:04:55.511Z,44.58
2023-02-11T09:05:58.436Z,62.08
2023-02-11T09:07:00.951Z,46.35
2023-02-11T09:08:02.538Z,47.80
2023-02-11T09:09:05.565Z,43.85
2023-02-11T09:10:08.869Z,47.70
2023-02-11T09:11:11.137Z,47.30
2023-02-11T09:12:13.640Z,55.25
2023-02-11T09:13:16.360Z,43.17
2023-02-11T09:14:21.666Z,41.65
2023-02-11T09:15:24.145Z,43.88
2023-02-11T09:16:29.007Z,54.47
2023-02-11T09:17:34.176Z,47.60
2023-02-11T09:18:35.775Z,53.08
2023-02-11T09:19:38.287Z,52.33
2023-02-11T09:20:39.917Z,44.53
2023-02-11T09:21:43.797Z,47.00
2023-02-11T09:22:45.334Z,44.85
2023-02-11T09:23:48.482Z,54.88
2023-02-11T09:24:50.969Z,50.70
2023-02-11T09:25:52.725Z,51.45
2023-02-11T09:26:56.239Z,45.00
2023-02-11T09:27:58.365Z,59.25
2023-02-11T09:29:02.205Z,49.50
2023-02-11T09:30:05.350Z,46.20
2023-02-11T09:31:07.484Z,53.53
2023-02-11T09:32:10.201Z,49.80
2023-02-11T09:33:12.066Z,53.28
2023-02-11T09:34:15.766Z,53.22
2023-02-11T09:35:17.447Z,50.25
2023-02-11T09:36:21.604Z,56.97
2023-02-11T09:37:25.581Z,43.95
2023-02-11T09:38:27.171Z,46.47
2023-02-11T09:39:29.918Z,58.20
2023-02-11T09:40:31.460Z,40.85
2023-02-11T09:41:43.192Z,48.20
2023-02-11T09:42:50.307Z,55.00
2023-02-11T09:43:54.180Z,52.60
2023-02-11T09:44:57.691Z,48.40
2023-02-11T09:46:01.159Z,45.50
2023-02-11T09:47:24.977Z,51.00
2023-02-11T09:48:41.298Z,50.33
2023-02-11T09:49:50.076Z,44.45
2023-02-11T09:50:55.844Z,49.83
2023-02-11T09:52:03.426Z,39.50
2023-02-11T09:53:12.633Z,50.85
2023-02-11T09:54:19.740Z,43.67
2023-02-11T09:55:25.939Z,43.85
2023-02-11T09:56:28.418Z,38.38
2023-02-11T09:57:34.263Z,49.10
2023-02-11T09:58:40.222Z,45.92
2023-02-11T09:59:41.757Z,47.63
2023-02-11T10:00:48.195Z,46.65
2023-02-11T10:01:53.375Z,45.38
2023-02-11T10:03:21.034Z,47.03
2023-02-11T10:04:46.386Z,46.20
2023-02-11T10:06:09.035Z,47.13
2023-02-11T10:07:21.990Z,42.20
2023-02-11T10:08:33.278Z,53.85
2023-02-11T10:09:47.662Z,41.00
2023-02-11T10:10:52.843Z,51.58
2023-02-11T10:12:04.477Z,48.85
2023-02-11T10:13:28.415Z,50.55
2023-02-11T10:14:51.589Z,54.88
2023-02-11T10:16:05.212Z,57.55
2023-02-11T10:17:14.808Z,52.15
2023-02-11T10:18:41.411Z,54.80
2023-02-11T10:19:57.480Z,50.60
2023-02-11T10:21:12.481Z,45.10
2023-02-11T10:22:29.475Z,48.40
2023-02-11T10:23:48.967Z,50.05
2023-02-11T10:24:58.262Z,44.42
2023-02-11T10:26:00.644Z,40.22
2023-02-11T10:27:07.589Z,58.42
2023-02-11T10:28:15.123Z,44.65
2023-02-11T10:29:35.004Z,50.55
2023-02-11T10:30:41.899Z,52.67
2023-02-11T10:31:46.207Z,48.97
2023-02-11T10:32:53.116Z,51.65
2023-02-11T10:34:00.946Z,47.83
2023-02-11T10:35:17.796Z,46.13
2023-02-11T10:36:23.862Z,42.75
2023-02-11T10:37:25.496Z,48.92
2023-02-11T10:38:28.957Z,47.47
2023-02-11T10:39:33.738Z,51.65
2023-02-11T10:40:35.340Z,54.30
2023-02-11T10:41:42.523Z,54.20
2023-02-11T10:42:48.830Z,54.72
2023-02-11T10:47:06.301Z,48.75
2023-02-11T10:48:40.042Z,47.10
2023-02-11T10:49:43.168Z,44.10
2023-02-11T10:50:46.018Z,55.63
2023-02-11T10:52:12.101Z,51.42
2023-02-11T10:53:24.218Z,53.28
2023-02-11T10:54:28.111Z,56.35
2023-02-11T10:55:32.996Z,47.47
2023-02-11T10:56:36.428Z,49.40
2023-02-11T10:57:44.506Z,63.22
2023-02-11T10:58:56.549Z,55.70
2023-02-11T11:00:00.527Z,54.95
2023-02-11T11:01:23.938Z,50.97
2023-02-11T11:02:32.129Z,52.55
2023-02-11T11:03:38.931Z,60.08
2023-02-11T11:04:44.917Z,48.08
2023-02-11T11:05:48.415Z,59.58
2023-02-11T11:07:14.475Z,48.67
2023-02-11T11:08:18.414Z,52.58
2023-02-11T11:09:28.965Z,48.67
2023-02-11T11:10:44.273Z,54.80
2023-02-11T11:11:52.554Z,55.13
2023-02-11T11:12:55.108Z,58.95
2023-02-11T11:14:00.151Z,54.80
2023-02-11T11:15:13.624Z,49.70
2023-02-11T11:16:23.081Z,59.90
2023-02-11T11:17:28.890Z,54.80
2023-02-11T11:18:31.467Z,73.93
2023-02-11T11:19:36.648Z,54.05
2023-02-11T11:20:53.744Z,59.88
2023-02-11T11:22:06.278Z,53.47
2023-02-11T11:23:18.576Z,59.78
2023-02-11T11:24:26.823Z,50.40
2023-02-11T11:25:30.470Z,64.45
2023-02-11T11:26:43.339Z,74.78
2023-02-11T11:27:49.136Z,59.80
2023-02-11T11:29:01.307Z,62.95
2023-02-11T11:30:03.308Z,55.97
2023-02-11T11:31:13.089Z,67.75
2023-02-11T11:32:21.597Z,55.20
2023-02-11T11:33:26.562Z,69.10
2023-02-11T11:34:32.650Z,66.80
2023-02-11T11:35:34.243Z,79.15
2023-02-11T11:36:39.494Z,58.53
2023-02-11T11:37:41.922Z,65.45
2023-02-11T11:38:58.348Z,67.25
2023-02-11T11:40:07.754Z,59.58
2023-02-11T11:41:26.850Z,55.65
2023-02-11T11:42:33.289Z,63.80
2023-02-11T11:43:37.464Z,66.70
2023-02-11T11:44:40.684Z,64.90
2023-02-11T11:45:54.428Z,60.90
2023-02-11T11:47:16.554Z,62.80
2023-02-11T11:48:23.364Z,70.28
2023-02-11T11:49:30.077Z,57.30
2023-02-11T11:50:36.432Z,70.35
2023-02-11T11:51:43.138Z,58.88
2023-02-11T11:52:50.720Z,72.13
2023-02-11T11:57:21.262Z,55.92
2023-02-11T11:58:25.257Z,56.17
2023-02-11T11:59:29.586Z,52.30
2023-02-11T12:00:38.608Z,50.17
2023-02-11T12:01:56.688Z,62.53
2023-02-11T12:03:36.910Z,68.50
2023-02-11T12:04:50.084Z,58.92
2023-02-11T12:06:08.974Z,66.10
2023-02-11T12:07:21.333Z,54.78
2023-02-11T12:08:38.767Z,67.85
2023-02-11T12:09:51.440Z,58.22
2023-02-11T12:11:04.744Z,58.53
2023-02-11T12:12:33.040Z,64.65
2023-02-11T12:13:56.352Z,58.83
2023-02-11T12:15:12.362Z,68.82
2023-02-11T12:16:26.006Z,61.88
2023-02-11T12:17:44.313Z,59.92
2023-02-11T12:19:14.996Z,65.07
2023-02-11T12:20:24.521Z,65.18
2023-02-11T12:21:38.339Z,66.57
2023-02-11T12:22:54.377Z,61.92
2023-02-11T12:24:29.506Z,56.80
2023-02-11T12:25:38.866Z,60.85
2023-02-11T12:26:49.488Z,60.00
2023-02-11T12:28:01.350Z,58.45
2023-02-11T12:29:13.820Z,65.35
2023-02-11T12:30:28.741Z,63.63
2023-02-11T12:31:47.094Z,59.10
2023-02-11T12:32:58.678Z,61.70
2023-02-11T12:34:12.979Z,70.85
2023-02-11T12:35:26.483Z,61.28
2023-02-11T12:36:45.675Z,59.78
2023-02-11T12:38:11.588Z,68.95
2023-02-11T12:39:27.027Z,58.95
2023-02-11T12:40:39.557Z,57.95
2023-02-11T12:42:18.929Z,50.97
2023-02-11T12:43:24.088Z,59.92
2023-02-11T12:44:39.030Z,58.53
2023-02-11T12:45:54.907Z,61.17
2023-02-11T12:47:07.209Z,73.70
2023-02-11T12:48:25.397Z,63.70
2023-02-11T12:49:53.355Z,62.20
2023-02-11T12:51:00.092Z,56.88
2023-02-11T12:52:15.425Z,67.55
2023-02-11T12:53:39.724Z,61.88
2023-02-11T12:54:58.136Z,62.75
2023-02-11T12:56:05.573Z,73.32
2023-02-11T12:57:14.604Z,58.63
2023-02-11T12:58:25.431Z,59.85
2023-02-11T12:59:45.477Z,59.47
2023-02-11T13:00:52.025Z,61.35
2023-02-11T13:01:56.753Z,66.95
2023-02-11T13:03:05.304Z,57.10
2023-02-11T13:04:14.046Z,59.63
2023-02-11T13:05:24.582Z,62.83
2023-02-11T13:06:40.257Z,61.15
2023-02-11T13:07:46.650Z,65.40
2023-02-11T13:08:55.729Z,57.75
2023-02-11T13:10:05.383Z,60.50
2023-02-11T13:11:14.812Z,59.63
2023-02-11T13:12:50.269Z,70.32
2023-02-11T13:13:58.051Z,64.13
2023-02-11T13:15:05.690Z,64.22
2023-02-11T13:16:18.822Z,57.35
2023-02-11T13:17:28.799Z,66.25
2023-02-11T13:18:44.745Z,58.67
2023-02-11T13:19:53.238Z,67.22
2023-02-11T13:21:20.299Z,60.00
2023-02-11T13:22:32.949Z,68.35
2023-02-11T13:23:42.902Z,75.10
2023-02-11T13:24:49.639Z,63.13
2023-02-11T13:25:57.389Z,57.13
2023-02-11T13:27:09.175Z,56.88
2023-02-11T13:28:23.398Z,59.50
2023-02-11T13:29:34.529Z,59.65
2023-02-11T13:30:46.800Z,64.38
2023-02-11T13:31:55.146Z,70.95
2023-02-11T13:33:18.844Z,64.03
2023-02-11T13:34:27.030Z,58.95
2023-02-11T13:35:31.249Z,54.28
2023-02-11T13:36:35.012Z,57.75
2023-02-11T13:37:39.220Z,55.25
2023-02-11T13:38:51.600Z,58.30
2023-02-11T13:40:03.480Z,58.10
2023-02-11T13:41:19.307Z,59.40
2023-02-11T13:42:21.886Z,59.47
2023-02-11T13:43:25.227Z,59.45
2023-02-11T13:44:29.251Z,65.47
2023-02-11T13:45:34.535Z,64.85
2023-02-11T13:46:55.580Z,61.92
2023-02-11T13:47:58.981Z,57.92
2023-02-11T13:49:01.886Z,59.45
2023-02-11T13:50:08.284Z,72.50
2023-02-11T13:51:12.589Z,56.47
2023-02-11T13:52:22.786Z,55.88
2023-02-11T13:53:25.354Z,50.92
2023-02-11T13:54:32.476Z,56.75
2023-02-11T13:55:35.636Z,52.17
2023-02-11T13:56:39.636Z,58.42
2023-02-11T13:57:43.026Z,64.25
2023-02-11T13:58:48.008Z,64.43
2023-02-11T13:59:52.438Z,51.63
2023-02-11T14:00:55.620Z,53.60
2023-02-11T14:02:40.804Z,48.15
2023-02-11T14:04:24.945Z,48.38
2023-02-11T14:05:49.845Z,50.20
2023-02-11T14:07:44.581Z,59.88
2023-02-11T14:09:02.647Z,51.97
2023-02-11T14:10:27.031Z,59.58
2023-02-11T14:11:49.586Z,55.78
2023-02-11T14:13:07.137Z,51.83
2023-02-11T14:14:21.867Z,57.65
2023-02-11T14:15:28.715Z,51.58
2023-02-11T14:17:23.276Z,58.30
2023-02-11T14:18:59.485Z,53.30
2023-02-11T14:20:25.405Z,56.88
2023-02-11T14:21:36.536Z,60.75
2023-02-11T14:22:45.299Z,50.15
2023-02-11T14:23:47.105Z,54.25
2023-02-11T14:24:53.952Z,60.17
2023-02-11T14:26:09.804Z,54.40
2023-02-11T14:27:21.361Z,55.25
2023-02-11T14:28:32.714Z,53.65
2023-02-11T14:29:41.921Z,62.85
2023-02-11T14:30:55.436Z,62.83
2023-02-11T14:32:05.760Z,57.92
2023-02-11T14:33:34.759Z,57.13
2023-02-11T14:34:52.364Z,55.85
2023-02-11T14:36:05.639Z,52.20
2023-02-11T14:37:20.314Z,56.63
2023-02-11T14:38:30.156Z,57.90
2023-02-11T14:39:52.812Z,50.70
2023-02-11T14:41:07.361Z,55.80
2023-02-11T14:42:19.852Z,56.40
2023-02-11T14:43:29.175Z,53.70
2023-02-11T14:44:33.852Z,56.83